sensor_id;sensor_type;location;lat;lon;timestamp;pressure;altitude;pressure_sealevel;temperature;humidity
50702;BME280;36670;50.094;8.496;2023-02-02T00:01:24;100727.31;;;8.80;64.43
50702;BME280;36670;50.094;8.496;2023-02-02T00:03:50;100722.88;;;8.79;65.10
50702;BME280;36670;50.094;8.496;2023-02-02T00:06:17;100720.22;;;8.73;65.22
50702;BME280;36670;50.094;8.496;2023-02-02T00:08:43;100732.38;;;9.02;64.13
50702;BME280;36670;50.094;8.496;2023-02-02T00:11:08;100732.28;;;8.90;64.71
50702;BME280;36670;50.094;8.496;2023-02-02T00:13:34;100729.94;;;8.94;64.90
50702;BME280;36670;50.094;8.496;2023-02-02T00:16:21;100717.63;;;8.96;64.56
50702;BME280;36670;50.094;8.496;2023-02-02T00:18:59;100716.59;;;9.09;64.17
50702;BME280;36670;50.094;8.496;2023-02-02T00:21:25;100730.06;;;8.99;63.96
50702;BME280;36670;50.094;8.496;2023-02-02T00:23:51;100719.09;;;9.11;63.62
50702;BME280;36670;50.094;8.496;2023-02-02T00:26:17;100726.38;;;9.05;63.75
50702;BME280;36670;50.094;8.496;2023-02-02T00:28:43;100730.59;;;9.08;63.72
50702;BME280;36670;50.094;8.496;2023-02-02T00:31:08;100732.22;;;8.97;63.82
50702;BME280;36670;50.094;8.496;2023-02-02T00:33:34;100734.44;;;8.88;64.46
50702;BME280;36670;50.094;8.496;2023-02-02T00:35:59;100737.00;;;9.01;63.43
50702;BME280;36670;50.094;8.496;2023-02-02T00:38:24;100728.81;;;9.13;63.34
50702;BME280;36670;50.094;8.496;2023-02-02T00:40:50;100745.75;;;8.98;63.57
50702;BME280;36670;50.094;8.496;2023-02-02T00:43:15;100748.50;;;8.98;63.36
50702;BME280;36670;50.094;8.496;2023-02-02T00:45:41;100744.25;;;9.14;63.92
50702;BME280;36670;50.094;8.496;2023-02-02T00:48:06;100741.50;;;9.14;64.22
50702;BME280;36670;50.094;8.496;2023-02-02T00:50:31;100740.28;;;9.10;64.53
50702;BME280;36670;50.094;8.496;2023-02-02T00:52:57;100737.22;;;9.18;63.83
50702;BME280;36670;50.094;8.496;2023-02-02T00:55:24;100743.66;;;9.12;64.02
50702;BME280;36670;50.094;8.496;2023-02-02T00:57:50;100749.84;;;9.26;64.00
50702;BME280;36670;50.094;8.496;2023-02-02T01:00:21;100754.28;;;9.27;64.41
50702;BME280;36670;50.094;8.496;2023-02-02T01:03:05;100759.56;;;9.29;64.28
50702;BME280;36670;50.094;8.496;2023-02-02T01:05:31;100759.22;;;9.37;64.38
50702;BME280;36670;50.094;8.496;2023-02-02T01:07:57;100766.41;;;9.38;64.32
50702;BME280;36670;50.094;8.496;2023-02-02T01:10:22;100767.91;;;9.52;64.04
50702;BME280;36670;50.094;8.496;2023-02-02T01:12:47;100753.31;;;9.64;63.71
50702;BME280;36670;50.094;8.496;2023-02-02T01:15:13;100762.25;;;9.47;64.42
50702;BME280;36670;50.094;8.496;2023-02-02T01:17:39;100756.06;;;9.64;64.28
50702;BME280;36670;50.094;8.496;2023-02-02T01:20:05;100761.78;;;9.50;63.99
50702;BME280;36670;50.094;8.496;2023-02-02T01:22:31;100761.84;;;9.62;64.18
50702;BME280;36670;50.094;8.496;2023-02-02T01:24:58;100767.59;;;9.72;63.68
50702;BME280;36670;50.094;8.496;2023-02-02T01:27:24;100773.34;;;9.71;64.03
50702;BME280;36670;50.094;8.496;2023-02-02T01:29:49;100776.16;;;9.83;63.42
50702;BME280;36670;50.094;8.496;2023-02-02T01:32:14;100777.59;;;9.85;63.68
50702;BME280;36670;50.094;8.496;2023-02-02T01:34:39;100778.34;;;10.04;63.62
50702;BME280;36670;50.094;8.496;2023-02-02T01:37:09;100781.00;;;9.99;63.59
50702;BME280;36670;50.094;8.496;2023-02-02T01:39:34;100789.03;;;10.01;63.27
50702;BME280;36670;50.094;8.496;2023-02-02T01:42:00;100795.81;;;9.86;63.49
50702;BME280;36670;50.094;8.496;2023-02-02T01:47:24;100792.47;;;9.96;63.47
50702;BME280;36670;50.094;8.496;2023-02-02T01:49:51;100786.84;;;9.91;63.50
50702;BME280;36670;50.094;8.496;2023-02-02T01:52:18;100791.41;;;9.97;63.80
50702;BME280;36670;50.094;8.496;2023-02-02T01:54:51;100790.34;;;9.98;63.40
50702;BME280;36670;50.094;8.496;2023-02-02T01:57:32;100794.94;;;10.16;62.75
50702;BME280;36670;50.094;8.496;2023-02-02T02:00:02;100791.91;;;10.06;63.05
50702;BME280;36670;50.094;8.496;2023-02-02T02:02:29;100788.91;;;10.07;63.47
50702;BME280;36670;50.094;8.496;2023-02-02T02:04:55;100791.66;;;10.07;62.72
50702;BME280;36670;50.094;8.496;2023-02-02T02:07:21;100789.63;;;9.91;63.97
50702;BME280;36670;50.094;8.496;2023-02-02T02:09:47;100793.34;;;9.97;63.11
50702;BME280;36670;50.094;8.496;2023-02-02T02:12:14;100796.97;;;10.09;63.22
50702;BME280;36670;50.094;8.496;2023-02-02T02:14:44;100790.19;;;9.93;63.26
50702;BME280;36670;50.094;8.496;2023-02-02T02:17:39;100787.28;;;9.76;63.58
50702;BME280;36670;50.094;8.496;2023-02-02T02:20:40;100784.53;;;9.88;63.25
50702;BME280;36670;50.094;8.496;2023-02-02T02:26:51;100782.84;;;9.75;64.56
50702;BME280;36670;50.094;8.496;2023-02-02T02:30:05;100788.34;;;9.63;64.97
50702;BME280;36670;50.094;8.496;2023-02-02T02:35:26;100785.44;;;9.70;64.53
50702;BME280;36670;50.094;8.496;2023-02-02T02:37:58;100788.16;;;9.88;63.97
50702;BME280;36670;50.094;8.496;2023-02-02T02:40:36;100795.69;;;9.81;64.30
50702;BME280;36670;50.094;8.496;2023-02-02T02:43:14;100786.78;;;9.67;64.29
50702;BME280;36670;50.094;8.496;2023-02-02T02:45:41;100787.22;;;9.64;64.79
50702;BME280;36670;50.094;8.496;2023-02-02T02:48:09;100779.69;;;9.60;64.50
50702;BME280;36670;50.094;8.496;2023-02-02T02:50:35;100782.53;;;9.53;64.91
50702;BME280;36670;50.094;8.496;2023-02-02T02:53:07;100783.59;;;9.52;65.63
50702;BME280;36670;50.094;8.496;2023-02-02T02:55:45;100793.41;;;9.17;66.67
50702;BME280;36670;50.094;8.496;2023-02-02T02:58:17;100784.53;;;9.46;66.07
50702;BME280;36670;50.094;8.496;2023-02-02T03:00:52;100788.09;;;9.34;66.30
50702;BME280;36670;50.094;8.496;2023-02-02T03:06:16;100786.06;;;9.72;65.33
50702;BME280;36670;50.094;8.496;2023-02-02T03:08:47;100792.63;;;9.59;65.61
50702;BME280;36670;50.094;8.496;2023-02-02T03:11:15;100783.97;;;9.55;66.33
50702;BME280;36670;50.094;8.496;2023-02-02T03:13:42;100786.56;;;9.81;65.67
50702;BME280;36670;50.094;8.496;2023-02-02T03:16:08;100784.69;;;9.51;66.48
50702;BME280;36670;50.094;8.496;2023-02-02T03:18:33;100790.34;;;9.26;67.65
50702;BME280;36670;50.094;8.496;2023-02-02T03:20:59;100788.66;;;9.55;66.06
50702;BME280;36670;50.094;8.496;2023-02-02T03:23:24;100790.94;;;9.58;66.15
50702;BME280;36670;50.094;8.496;2023-02-02T03:25:50;100790.19;;;9.81;65.50
50702;BME280;36670;50.094;8.496;2023-02-02T03:28:17;100786.13;;;9.53;66.54
50702;BME280;36670;50.094;8.496;2023-02-02T03:30:43;100789.41;;;9.62;66.14
50702;BME280;36670;50.094;8.496;2023-02-02T03:33:11;100794.59;;;9.82;65.69
50702;BME280;36670;50.094;8.496;2023-02-02T03:35:36;100790.69;;;9.90;65.37
50702;BME280;36670;50.094;8.496;2023-02-02T03:38:02;100789.63;;;9.61;65.91
50702;BME280;36670;50.094;8.496;2023-02-02T03:40:28;100787.28;;;9.76;65.75
50702;BME280;36670;50.094;8.496;2023-02-02T03:42:54;100791.88;;;9.94;65.44
50702;BME280;36670;50.094;8.496;2023-02-02T03:45:19;100790.28;;;9.86;65.59
50702;BME280;36670;50.094;8.496;2023-02-02T03:47:45;100788.63;;;9.85;65.36
50702;BME280;36670;50.094;8.496;2023-02-02T03:50:10;100792.56;;;9.89;65.63
50702;BME280;36670;50.094;8.496;2023-02-02T03:52:35;100801.84;;;9.95;64.90
50702;BME280;36670;50.094;8.496;2023-02-02T03:55:00;100798.34;;;9.88;65.19
50702;BME280;36670;50.094;8.496;2023-02-02T03:57:26;100793.19;;;9.91;65.32
50702;BME280;36670;50.094;8.496;2023-02-02T03:59:51;100791.84;;;9.82;65.44
50702;BME280;36670;50.094;8.496;2023-02-02T04:02:16;100786.84;;;9.91;65.50
50702;BME280;36670;50.094;8.496;2023-02-02T04:04:42;100796.38;;;9.65;66.05
50702;BME280;36670;50.094;8.496;2023-02-02T04:07:07;100793.53;;;9.83;65.72
50702;BME280;36670;50.094;8.496;2023-02-02T04:09:32;100794.84;;;9.81;65.15
50702;BME280;36670;50.094;8.496;2023-02-02T04:11:58;100800.34;;;9.69;65.98
50702;BME280;36670;50.094;8.496;2023-02-02T04:14:23;100809.59;;;9.74;66.12
50702;BME280;36670;50.094;8.496;2023-02-02T04:16:48;100809.34;;;9.76;65.29
50702;BME280;36670;50.094;8.496;2023-02-02T04:19:14;100804.09;;;9.56;65.63
50702;BME280;36670;50.094;8.496;2023-02-02T04:21:41;100808.38;;;9.70;65.76
50702;BME280;36670;50.094;8.496;2023-02-02T04:24:09;100807.63;;;9.63;65.75
50702;BME280;36670;50.094;8.496;2023-02-02T04:26:35;100810.16;;;9.65;65.12
50702;BME280;36670;50.094;8.496;2023-02-02T04:29:00;100811.47;;;9.62;65.46
50702;BME280;36670;50.094;8.496;2023-02-02T04:31:25;100810.66;;;9.73;65.79
50702;BME280;36670;50.094;8.496;2023-02-02T04:33:51;100814.16;;;9.81;65.49
50702;BME280;36670;50.094;8.496;2023-02-02T04:36:16;100811.44;;;10.04;65.27
50702;BME280;36670;50.094;8.496;2023-02-02T04:38:42;100810.47;;;9.99;64.75
50702;BME280;36670;50.094;8.496;2023-02-02T04:41:10;100818.91;;;10.04;64.88
50702;BME280;36670;50.094;8.496;2023-02-02T04:43:36;100814.09;;;9.99;65.25
50702;BME280;36670;50.094;8.496;2023-02-02T04:46:03;100820.78;;;9.91;65.06
50702;BME280;36670;50.094;8.496;2023-02-02T04:48:28;100823.78;;;9.90;64.74
50702;BME280;36670;50.094;8.496;2023-02-02T04:51:01;100829.00;;;9.80;64.34
50702;BME280;36670;50.094;8.496;2023-02-02T04:53:27;100833.84;;;9.84;64.43
50702;BME280;36670;50.094;8.496;2023-02-02T04:55:53;100831.50;;;9.69;65.02
50702;BME280;36670;50.094;8.496;2023-02-02T04:58:18;100839.94;;;9.86;64.89
50702;BME280;36670;50.094;8.496;2023-02-02T05:00:44;100834.81;;;10.02;64.53
50702;BME280;36670;50.094;8.496;2023-02-02T05:03:09;100831.97;;;9.97;63.99
50702;BME280;36670;50.094;8.496;2023-02-02T05:05:34;100837.91;;;9.94;64.46
50702;BME280;36670;50.094;8.496;2023-02-02T05:08:00;100837.22;;;9.98;64.50
50702;BME280;36670;50.094;8.496;2023-02-02T05:10:25;100850.97;;;9.86;64.65
50702;BME280;36670;50.094;8.496;2023-02-02T05:12:54;100831.03;;;9.72;64.97
50702;BME280;36670;50.094;8.496;2023-02-02T05:15:20;100837.91;;;9.82;64.56
50702;BME280;36670;50.094;8.496;2023-02-02T05:17:46;100851.94;;;9.80;64.55
50702;BME280;36670;50.094;8.496;2023-02-02T05:20:11;100849.41;;;9.79;65.06
50702;BME280;36670;50.094;8.496;2023-02-02T05:22:37;100850.84;;;9.81;65.17
50702;BME280;36670;50.094;8.496;2023-02-02T05:25:02;100861.66;;;9.83;64.93
50702;BME280;36670;50.094;8.496;2023-02-02T05:27:28;100859.84;;;9.58;65.62
50702;BME280;36670;50.094;8.496;2023-02-02T05:29:53;100857.50;;;9.62;65.88
50702;BME280;36670;50.094;8.496;2023-02-02T05:32:18;100860.66;;;9.77;64.99
50702;BME280;36670;50.094;8.496;2023-02-02T05:34:43;100849.09;;;9.68;65.29
50702;BME280;36670;50.094;8.496;2023-02-02T05:37:09;100866.53;;;9.50;65.53
50702;BME280;36670;50.094;8.496;2023-02-02T05:39:34;100860.44;;;9.60;66.00
50702;BME280;36670;50.094;8.496;2023-02-02T05:41:59;100867.16;;;9.52;66.10
50702;BME280;36670;50.094;8.496;2023-02-02T05:44:25;100866.88;;;9.72;65.80
50702;BME280;36670;50.094;8.496;2023-02-02T05:46:50;100873.59;;;9.77;65.35
50702;BME280;36670;50.094;8.496;2023-02-02T05:49:15;100869.53;;;9.79;65.36
50702;BME280;36670;50.094;8.496;2023-02-02T05:51:45;100879.97;;;9.77;65.90
50702;BME280;36670;50.094;8.496;2023-02-02T05:54:12;100880.25;;;9.87;65.78
50702;BME280;36670;50.094;8.496;2023-02-02T05:56:41;100880.41;;;9.74;65.93
50702;BME280;36670;50.094;8.496;2023-02-02T05:59:06;100874.88;;;9.62;65.59
50702;BME280;36670;50.094;8.496;2023-02-02T06:01:32;100869.84;;;9.71;65.65
50702;BME280;36670;50.094;8.496;2023-02-02T06:03:58;100873.13;;;9.80;65.87
50702;BME280;36670;50.094;8.496;2023-02-02T06:06:23;100874.53;;;9.70;65.81
50702;BME280;36670;50.094;8.496;2023-02-02T06:08:48;100875.53;;;9.76;65.74
50702;BME280;36670;50.094;8.496;2023-02-02T06:11:16;100883.94;;;9.81;65.35
50702;BME280;36670;50.094;8.496;2023-02-02T06:13:42;100879.97;;;9.77;65.43
50702;BME280;36670;50.094;8.496;2023-02-02T06:16:08;100880.38;;;9.62;65.50
50702;BME280;36670;50.094;8.496;2023-02-02T06:18:34;100880.88;;;9.71;66.13
50702;BME280;36670;50.094;8.496;2023-02-02T06:21:01;100878.31;;;9.57;66.42
50702;BME280;36670;50.094;8.496;2023-02-02T06:23:28;100878.09;;;9.59;66.38
50702;BME280;36670;50.094;8.496;2023-02-02T06:25:54;100880.00;;;9.59;66.42
50702;BME280;36670;50.094;8.496;2023-02-02T06:28:19;100868.78;;;9.72;65.90
50702;BME280;36670;50.094;8.496;2023-02-02T06:30:45;100880.00;;;9.59;65.87
50702;BME280;36670;50.094;8.496;2023-02-02T06:33:11;100872.34;;;9.61;66.56
50702;BME280;36670;50.094;8.496;2023-02-02T06:35:36;100880.22;;;9.57;66.43
50702;BME280;36670;50.094;8.496;2023-02-02T06:38:01;100870.50;;;9.54;66.86
50702;BME280;36670;50.094;8.496;2023-02-02T06:40:27;100881.84;;;9.46;66.95
50702;BME280;36670;50.094;8.496;2023-02-02T06:43:01;100878.47;;;9.44;66.85
50702;BME280;36670;50.094;8.496;2023-02-02T06:45:28;100881.63;;;9.48;67.22
50702;BME280;36670;50.094;8.496;2023-02-02T06:47:57;100873.13;;;9.49;66.97
50702;BME280;36670;50.094;8.496;2023-02-02T06:50:24;100878.38;;;9.69;66.48
50702;BME280;36670;50.094;8.496;2023-02-02T06:52:50;100872.09;;;9.62;66.54
50702;BME280;36670;50.094;8.496;2023-02-02T06:55:17;100874.75;;;9.38;67.18
50702;BME280;36670;50.094;8.496;2023-02-02T06:57:43;100864.22;;;9.47;66.17
50702;BME280;36670;50.094;8.496;2023-02-02T07:00:09;100872.66;;;9.52;66.30
50702;BME280;36670;50.094;8.496;2023-02-02T07:02:34;100870.38;;;9.49;66.38
50702;BME280;36670;50.094;8.496;2023-02-02T07:05:00;100873.16;;;9.61;65.83
50702;BME280;36670;50.094;8.496;2023-02-02T07:07:26;100870.88;;;9.58;66.25
50702;BME280;36670;50.094;8.496;2023-02-02T07:09:51;100875.09;;;9.61;66.15
50702;BME280;36670;50.094;8.496;2023-02-02T07:12:16;100873.25;;;9.54;65.99
50702;BME280;36670;50.094;8.496;2023-02-02T07:14:43;100871.41;;;9.67;65.69
50702;BME280;36670;50.094;8.496;2023-02-02T07:17:09;100868.41;;;9.68;65.39
50702;BME280;36670;50.094;8.496;2023-02-02T07:19:34;100871.69;;;9.77;65.11
50702;BME280;36670;50.094;8.496;2023-02-02T07:22:00;100877.78;;;9.67;65.65
50702;BME280;36670;50.094;8.496;2023-02-02T07:24:25;100883.13;;;9.62;65.68
50702;BME280;36670;50.094;8.496;2023-02-02T07:26:51;100892.44;;;9.80;64.70
50702;BME280;36670;50.094;8.496;2023-02-02T07:29:17;100884.59;;;9.65;64.82
50702;BME280;36670;50.094;8.496;2023-02-02T07:31:42;100884.88;;;9.75;65.14
50702;BME280;36670;50.094;8.496;2023-02-02T07:34:07;100888.38;;;9.82;64.70
50702;BME280;36670;50.094;8.496;2023-02-02T07:36:33;100894.97;;;9.81;65.14
50702;BME280;36670;50.094;8.496;2023-02-02T07:38:58;100896.97;;;9.74;64.89
50702;BME280;36670;50.094;8.496;2023-02-02T07:41:26;100892.81;;;9.83;64.33
50702;BME280;36670;50.094;8.496;2023-02-02T07:43:52;100889.63;;;9.68;65.37
50702;BME280;36670;50.094;8.496;2023-02-02T07:46:18;100902.72;;;9.72;65.08
50702;BME280;36670;50.094;8.496;2023-02-02T07:48:43;100908.28;;;9.84;65.06
50702;BME280;36670;50.094;8.496;2023-02-02T07:51:12;100914.06;;;9.83;64.33
50702;BME280;36670;50.094;8.496;2023-02-02T07:53:41;100911.22;;;9.71;64.58
50702;BME280;36670;50.094;8.496;2023-02-02T07:56:12;100909.53;;;9.70;64.71
50702;BME280;36670;50.094;8.496;2023-02-02T07:58:38;100905.34;;;9.67;65.65
50702;BME280;36670;50.094;8.496;2023-02-02T08:01:05;100908.53;;;9.64;65.41
50702;BME280;36670;50.094;8.496;2023-02-02T08:03:31;100911.44;;;9.69;65.33
50702;BME280;36670;50.094;8.496;2023-02-02T08:05:57;100890.09;;;9.65;65.76
50702;BME280;36670;50.094;8.496;2023-02-02T08:08:23;100900.38;;;9.88;65.39
50702;BME280;36670;50.094;8.496;2023-02-02T08:10:52;100910.19;;;9.84;64.91
50702;BME280;36670;50.094;8.496;2023-02-02T08:13:19;100917.09;;;9.93;64.52
50702;BME280;36670;50.094;8.496;2023-02-02T08:15:44;100917.69;;;9.65;65.34
50702;BME280;36670;50.094;8.496;2023-02-02T08:18:10;100910.84;;;9.67;64.98
50702;BME280;36670;50.094;8.496;2023-02-02T08:20:35;100915.19;;;9.75;64.72
50702;BME280;36670;50.094;8.496;2023-02-02T08:23:00;100915.44;;;9.73;65.46
50702;BME280;36670;50.094;8.496;2023-02-02T08:25:26;100919.03;;;9.74;65.62
50702;BME280;36670;50.094;8.496;2023-02-02T08:27:55;100914.44;;;9.68;65.74
50702;BME280;36670;50.094;8.496;2023-02-02T08:30:23;100912.50;;;9.87;64.83
50702;BME280;36670;50.094;8.496;2023-02-02T08:32:49;100931.84;;;9.99;65.07
50702;BME280;36670;50.094;8.496;2023-02-02T08:35:14;100939.63;;;9.90;65.22
50702;BME280;36670;50.094;8.496;2023-02-02T08:37:39;100936.06;;;10.01;64.88
50702;BME280;36670;50.094;8.496;2023-02-02T08:40:05;100942.22;;;9.85;65.04
50702;BME280;36670;50.094;8.496;2023-02-02T08:42:31;100933.03;;;9.91;64.47
50702;BME280;36670;50.094;8.496;2023-02-02T08:44:56;100924.72;;;10.10;64.59
50702;BME280;36670;50.094;8.496;2023-02-02T08:47:21;100922.94;;;10.15;64.19
50702;BME280;36670;50.094;8.496;2023-02-02T08:49:47;100939.22;;;10.05;64.29
50702;BME280;36670;50.094;8.496;2023-02-02T08:52:12;100937.19;;;10.12;64.52
50702;BME280;36670;50.094;8.496;2023-02-02T08:54:37;100929.16;;;10.11;64.60
50702;BME280;36670;50.094;8.496;2023-02-02T08:57:03;100938.38;;;10.35;63.96
50702;BME280;36670;50.094;8.496;2023-02-02T08:59:28;100932.69;;;10.30;63.83
50702;BME280;36670;50.094;8.496;2023-02-02T09:01:53;100952.94;;;10.23;63.80
50702;BME280;36670;50.094;8.496;2023-02-02T09:04:18;100951.97;;;10.18;63.94
50702;BME280;36670;50.094;8.496;2023-02-02T09:06:45;100950.91;;;10.19;64.51
50702;BME280;36670;50.094;8.496;2023-02-02T09:09:13;100946.22;;;10.19;63.40
50702;BME280;36670;50.094;8.496;2023-02-02T09:11:39;100953.28;;;10.15;63.92
50702;BME280;36670;50.094;8.496;2023-02-02T09:14:05;100954.88;;;10.23;64.01
50702;BME280;36670;50.094;8.496;2023-02-02T09:16:32;100954.66;;;10.24;63.69
50702;BME280;36670;50.094;8.496;2023-02-02T09:18:58;100945.31;;;10.07;63.77
50702;BME280;36670;50.094;8.496;2023-02-02T09:21:23;100942.06;;;10.29;63.10
50702;BME280;36670;50.094;8.496;2023-02-02T09:23:50;100951.66;;;10.26;63.87
50702;BME280;36670;50.094;8.496;2023-02-02T09:26:20;100953.78;;;10.43;63.06
50702;BME280;36670;50.094;8.496;2023-02-02T09:28:49;100948.13;;;10.49;62.76
50702;BME280;36670;50.094;8.496;2023-02-02T09:31:16;100959.69;;;10.28;62.93
50702;BME280;36670;50.094;8.496;2023-02-02T09:33:42;100955.47;;;10.55;62.21
50702;BME280;36670;50.094;8.496;2023-02-02T09:38:34;100965.56;;;10.50;62.57
50702;BME280;36670;50.094;8.496;2023-02-02T09:41:00;100956.31;;;10.56;61.95
50702;BME280;36670;50.094;8.496;2023-02-02T09:43:42;100960.56;;;10.70;62.25
50702;BME280;36670;50.094;8.496;2023-02-02T09:49:12;100974.94;;;10.61;61.47
50702;BME280;36670;50.094;8.496;2023-02-02T09:51:43;100980.81;;;10.52;61.23
50702;BME280;36670;50.094;8.496;2023-02-02T09:54:18;100986.19;;;10.47;61.74
50702;BME280;36670;50.094;8.496;2023-02-02T09:56:48;100985.38;;;10.58;61.73
50702;BME280;36670;50.094;8.496;2023-02-02T09:59:21;100998.44;;;10.51;62.18
50702;BME280;36670;50.094;8.496;2023-02-02T10:01:51;101008.88;;;10.49;61.88
50702;BME280;36670;50.094;8.496;2023-02-02T10:04:28;101013.31;;;10.50;61.65
50702;BME280;36670;50.094;8.496;2023-02-02T10:07:03;101017.50;;;10.41;62.07
50702;BME280;36670;50.094;8.496;2023-02-02T10:09:48;101012.81;;;10.41;62.37
50702;BME280;36670;50.094;8.496;2023-02-02T10:15:13;101024.69;;;10.23;62.28
50702;BME280;36670;50.094;8.496;2023-02-02T10:17:54;101025.69;;;10.29;62.74
50702;BME280;36670;50.094;8.496;2023-02-02T10:25:53;101033.25;;;10.52;62.10
50702;BME280;36670;50.094;8.496;2023-02-02T10:28:43;101030.38;;;10.59;61.96
50702;BME280;36670;50.094;8.496;2023-02-02T10:34:52;101040.59;;;10.58;62.27
50702;BME280;36670;50.094;8.496;2023-02-02T10:40:16;101028.66;;;10.46;61.53
50702;BME280;36670;50.094;8.496;2023-02-02T10:46:38;101034.75;;;10.67;61.42
50702;BME280;36670;50.094;8.496;2023-02-02T10:49:14;101034.59;;;10.62;61.79
50702;BME280;36670;50.094;8.496;2023-02-02T10:51:51;101031.03;;;10.73;61.24
50702;BME280;36670;50.094;8.496;2023-02-02T10:54:31;101033.78;;;10.73;61.91
50702;BME280;36670;50.094;8.496;2023-02-02T10:57:03;101029.47;;;10.77;61.75
50702;BME280;36670;50.094;8.496;2023-02-02T10:59:36;101032.47;;;10.75;60.97
50702;BME280;36670;50.094;8.496;2023-02-02T11:02:11;101033.59;;;10.74;61.35
50702;BME280;36670;50.094;8.496;2023-02-02T11:04:36;101045.19;;;10.65;61.77
50702;BME280;36670;50.094;8.496;2023-02-02T11:07:20;101033.97;;;10.90;61.11
50702;BME280;36670;50.094;8.496;2023-02-02T11:09:45;101042.94;;;10.85;61.16
50702;BME280;36670;50.094;8.496;2023-02-02T11:15:26;101047.66;;;10.85;61.08
50702;BME280;36670;50.094;8.496;2023-02-02T11:17:52;101041.66;;;10.88;61.22
50702;BME280;36670;50.094;8.496;2023-02-02T11:20:30;101045.13;;;10.83;61.85
50702;BME280;36670;50.094;8.496;2023-02-02T11:23:01;101046.66;;;10.79;61.20
50702;BME280;36670;50.094;8.496;2023-02-02T11:25:33;101045.72;;;10.85;60.80
50702;BME280;36670;50.094;8.496;2023-02-02T11:28:01;101045.38;;;10.82;61.66
50702;BME280;36670;50.094;8.496;2023-02-02T11:30:36;101048.72;;;10.84;61.85
50702;BME280;36670;50.094;8.496;2023-02-02T11:33:25;101049.09;;;10.87;61.42
50702;BME280;36670;50.094;8.496;2023-02-02T11:35:55;101055.78;;;10.68;61.95
50702;BME280;36670;50.094;8.496;2023-02-02T11:38:20;101056.59;;;10.68;62.44
50702;BME280;36670;50.094;8.496;2023-02-02T11:40:55;101055.72;;;10.56;62.42
50702;BME280;36670;50.094;8.496;2023-02-02T11:43:27;101057.78;;;10.61;62.67
50702;BME280;36670;50.094;8.496;2023-02-02T11:45:57;101066.66;;;10.63;62.56
50702;BME280;36670;50.094;8.496;2023-02-02T11:48:27;101055.47;;;10.57;63.38
50702;BME280;36670;50.094;8.496;2023-02-02T11:50:54;101060.06;;;10.64;63.41
50702;BME280;36670;50.094;8.496;2023-02-02T11:53:22;101047.06;;;10.95;62.58
50702;BME280;36670;50.094;8.496;2023-02-02T11:55:48;101036.41;;;10.98;62.86
50702;BME280;36670;50.094;8.496;2023-02-02T11:58:19;101050.03;;;10.81;62.43
50702;BME280;36670;50.094;8.496;2023-02-02T12:00:51;101051.38;;;10.90;62.21
50702;BME280;36670;50.094;8.496;2023-02-02T12:03:33;101040.22;;;10.97;62.63
50702;BME280;36670;50.094;8.496;2023-02-02T12:06:00;101051.03;;;10.99;62.12
50702;BME280;36670;50.094;8.496;2023-02-02T12:08:41;101049.09;;;10.87;62.27
50702;BME280;36670;50.094;8.496;2023-02-02T12:11:08;101043.44;;;10.82;62.33
50702;BME280;36670;50.094;8.496;2023-02-02T12:14:04;101042.47;;;10.76;62.27
50702;BME280;36670;50.094;8.496;2023-02-02T12:19:58;101045.66;;;11.16;61.90
50702;BME280;36670;50.094;8.496;2023-02-02T12:33:05;101044.00;;;11.50;61.47
50702;BME280;36670;50.094;8.496;2023-02-02T12:35:47;101048.56;;;11.56;60.77
50702;BME280;36670;50.094;8.496;2023-02-02T12:44:03;101049.66;;;11.43;61.27
50702;BME280;36670;50.094;8.496;2023-02-02T12:46:48;101051.09;;;11.22;62.10
50702;BME280;36670;50.094;8.496;2023-02-02T12:49:53;101051.69;;;11.36;61.13
50702;BME280;36670;50.094;8.496;2023-02-02T12:52:40;101044.25;;;11.49;61.51
50702;BME280;36670;50.094;8.496;2023-02-02T12:55:22;101046.78;;;11.50;61.38
50702;BME280;36670;50.094;8.496;2023-02-02T12:58:13;101053.72;;;11.41;61.64
50702;BME280;36670;50.094;8.496;2023-02-02T13:00:47;101047.84;;;11.25;61.06
50702;BME280;36670;50.094;8.496;2023-02-02T13:03:28;101048.78;;;11.31;60.77
50702;BME280;36670;50.094;8.496;2023-02-02T13:09:29;101059.56;;;10.97;62.57
50702;BME280;36670;50.094;8.496;2023-02-02T13:12:04;101051.06;;;11.10;62.48
50702;BME280;36670;50.094;8.496;2023-02-02T13:14:35;101059.81;;;10.96;62.29
50702;BME280;36670;50.094;8.496;2023-02-02T13:17:18;101071.59;;;11.03;61.98
50702;BME280;36670;50.094;8.496;2023-02-02T13:19:56;101067.81;;;11.27;62.05
50702;BME280;36670;50.094;8.496;2023-02-02T13:22:27;101063.47;;;11.32;62.43
50702;BME280;36670;50.094;8.496;2023-02-02T13:24:56;101056.25;;;11.31;62.77
50702;BME280;36670;50.094;8.496;2023-02-02T13:27:24;101073.09;;;11.29;62.22
50702;BME280;36670;50.094;8.496;2023-02-02T13:29:57;101078.50;;;11.36;62.14
50702;BME280;36670;50.094;8.496;2023-02-02T13:32:29;101066.84;;;11.57;61.93
50702;BME280;36670;50.094;8.496;2023-02-02T13:34:57;101076.13;;;11.51;62.61
50702;BME280;36670;50.094;8.496;2023-02-02T13:42:53;101068.16;;;11.67;61.65
50702;BME280;36670;50.094;8.496;2023-02-02T13:45:34;101075.13;;;11.81;61.51
50702;BME280;36670;50.094;8.496;2023-02-02T13:51:08;101084.63;;;11.61;61.74
50702;BME280;36670;50.094;8.496;2023-02-02T13:54:24;101067.09;;;11.56;62.28
50702;BME280;36670;50.094;8.496;2023-02-02T13:57:10;101083.53;;;11.51;61.32
50702;BME280;36670;50.094;8.496;2023-02-02T13:59:46;101077.44;;;11.49;61.49
50702;BME280;36670;50.094;8.496;2023-02-02T14:02:37;101078.63;;;11.65;61.28
50702;BME280;36670;50.094;8.496;2023-02-02T14:05:05;101076.84;;;11.58;62.09
50702;BME280;36670;50.094;8.496;2023-02-02T14:07:43;101086.81;;;11.71;61.68
50702;BME280;36670;50.094;8.496;2023-02-02T14:10:41;101086.06;;;11.76;61.46
50702;BME280;36670;50.094;8.496;2023-02-02T14:16:05;101097.88;;;11.83;60.99
50702;BME280;36670;50.094;8.496;2023-02-02T14:23:55;101104.63;;;11.87;61.90
50702;BME280;36670;50.094;8.496;2023-02-02T14:26:44;101106.91;;;11.67;62.48